Time;durP1;ratioP1;P1;durP2;ratioP2;P2;SDS_P1;SDS_P2;PMS_P1;PMS_P2;Temp;Humidity;BMP_temperature;BMP_pressure;BME280_temperature;BME280_humidity;BME280_pressure;Samples;Min_cycle;Max_cycle;Signal;HPM_P1;HPM_P2
2023/09/03 00:01:40;;;;;;;;;;;14.70;99.90;;;;;;5134956;28;20051;-40
2023/09/03 00:04:06;;;;;;;8.32;4.53;;;14.70;99.90;;;;;;5134691;28;20261;-40
2023/09/03 00:06:32;;;;;;;6.72;4.13;;;14.70;99.90;;;;;;5134538;28;20054;-40
2023/09/03 00:08:57;;;;;;;8.73;5.10;;;14.70;99.90;;;;;;5116711;28;20062;-40
2023/09/03 00:11:23;;;;;;;7.43;4.10;;;14.70;99.90;;;;;;5134314;28;20096;-40
2023/09/03 00:13:49;;;;;;;7.30;4.00;;;14.70;99.90;;;;;;5116415;28;20498;-40
2023/09/03 00:16:14;;;;;;;6.45;3.80;;;14.60;99.90;;;;;;5134557;28;20081;-40
2023/09/03 00:18:40;;;;;;;6.87;3.90;;;14.60;99.90;;;;;;5134486;28;20471;-40
2023/09/03 00:21:06;;;;;;;7.90;4.30;;;14.60;99.90;;;;;;5134336;28;20288;-40
2023/09/03 00:23:33;;;;;;;7.15;3.88;;;14.50;99.90;;;;;;5134221;28;20087;-40
2023/09/03 00:25:59;;;;;;;6.80;4.05;;;14.50;99.90;;;;;;5116224;28;20184;-41
2023/09/03 00:28:26;;;;;;;6.72;4.00;;;14.50;99.90;;;;;;5134187;28;20058;-40
2023/09/03 00:31:07;;;;;;;6.68;3.50;;;14.50;99.90;;;;;;5134337;28;20411;-40
2023/09/03 00:33:33;;;;;;;6.30;3.60;;;14.50;99.90;;;;;;5134283;28;20054;-40
2023/09/03 00:36:03;;;;;;;5.55;3.33;;;14.50;99.90;;;;;;5134339;28;20089;-40
2023/09/03 00:38:29;;;;;;;6.68;3.30;;;14.50;99.90;;;;;;5137391;27;20096;-40
2023/09/03 00:40:54;;;;;;;6.70;3.85;;;14.40;99.90;;;;;;5138745;27;20429;-40
2023/09/03 00:43:20;;;;;;;5.85;3.45;;;14.40;99.90;;;;;;5138183;27;20129;-40
2023/09/03 00:45:48;;;;;;;7.47;3.95;;;14.50;99.90;;;;;;5138101;27;20126;-40
2023/09/03 00:48:18;;;;;;;7.25;3.90;;;14.50;99.90;;;;;;5119792;27;20118;-40
2023/09/03 00:50:45;;;;;;;6.63;3.72;;;14.50;99.90;;;;;;5137855;27;20049;-40
2023/09/03 00:53:12;;;;;;;6.45;3.58;;;14.40;99.90;;;;;;5137899;27;20049;-40
2023/09/03 00:55:38;;;;;;;6.18;3.42;;;14.40;99.90;;;;;;5138299;27;20050;-40
2023/09/03 00:58:06;;;;;;;6.90;4.15;;;14.40;99.90;;;;;;5138027;27;20035;-40
2023/09/03 01:00:33;;;;;;;7.05;4.10;;;14.40;99.90;;;;;;5137899;27;20046;-40
2023/09/03 01:03:00;;;;;;;7.15;4.00;;;14.40;99.90;;;;;;5137716;27;20051;-40
2023/09/03 01:05:26;;;;;;;6.63;3.72;;;14.40;99.90;;;;;;5137806;27;20051;-40
2023/09/03 01:07:53;;;;;;;6.68;4.10;;;14.40;99.90;;;;;;5137609;27;20050;-40
2023/09/03 01:10:22;;;;;;;6.22;3.65;;;14.40;99.90;;;;;;5137814;27;20051;-40
2023/09/03 01:13:00;;;;;;;6.88;4.22;;;14.30;99.90;;;;;;5119435;27;20047;-40
2023/09/03 01:15:35;;;;;;;15.55;4.35;;;14.30;99.90;;;;;;5137596;27;20047;-40
2023/09/03 01:18:17;;;;;;;6.65;4.10;;;14.30;99.90;;;;;;5137572;27;20513;-40
2023/09/03 01:20:54;;;;;;;6.07;3.92;;;14.40;99.90;;;;;;5137611;27;20561;-40
2023/09/03 01:23:33;;;;;;;7.95;4.30;;;14.40;99.90;;;;;;5137865;27;20395;-40
2023/09/03 01:26:44;;;;;;;7.00;3.90;;;14.40;99.90;;;;;;5137386;27;20043;-40
2023/09/03 01:29:11;;;;;;;7.30;4.28;;;14.40;99.90;;;;;;5137816;27;20047;-40
2023/09/03 01:31:38;;;;;;;6.75;4.07;;;14.40;99.90;;;;;;5137312;27;20053;-40
2023/09/03 01:34:05;;;;;;;6.57;3.70;;;14.40;99.90;;;;;;5137293;27;20110;-40
2023/09/03 01:36:32;;;;;;;6.38;3.45;;;14.40;99.90;;;;;;5137357;27;20043;-40
2023/09/03 01:39:03;;;;;;;5.57;3.47;;;14.40;99.90;;;;;;5119018;27;20054;-41
2023/09/03 01:41:34;;;;;;;6.30;3.47;;;14.40;99.90;;;;;;5137638;27;20074;-40
2023/09/03 01:44:02;;;;;;;7.97;3.85;;;14.50;99.90;;;;;;5137389;27;20134;-40
2023/09/03 01:46:41;;;;;;;6.75;3.35;;;14.50;99.90;;;;;;5136761;27;20499;-40
2023/09/03 01:49:25;;;;;;;6.68;3.83;;;14.50;99.90;;;;;;5117963;27;20090;-40
2023/09/03 01:52:21;;;;;;;6.38;3.17;;;14.50;99.90;;;;;;5118529;27;20105;-41
2023/09/03 01:54:48;;;;;;;6.85;3.63;;;14.50;99.90;;;;;;5137323;27;20119;-40
2023/09/03 01:57:18;;;;;;;6.47;3.55;;;14.50;99.90;;;;;;5136821;27;20130;-40
2023/09/03 01:59:51;;;;;;;5.25;3.08;;;14.50;99.90;;;;;;5136589;27;20047;-40
2023/09/03 02:02:18;;;;;;;6.20;3.15;;;14.50;99.90;;;;;;5136286;27;20089;-41
2023/09/03 02:04:44;;;;;;;6.75;3.42;;;14.50;99.90;;;;;;5136651;27;20051;-40
2023/09/03 02:07:09;;;;;;;6.93;3.28;;;14.50;99.90;;;;;;5136698;27;20047;-40
2023/09/03 02:09:35;;;;;;;6.03;2.77;;;14.50;99.90;;;;;;5136562;27;20055;-40
2023/09/03 02:12:02;;;;;;;6.47;3.63;;;14.40;99.90;;;;;;5136518;27;20805;-40
2023/09/03 02:14:27;;;;;;;;;;;14.40;99.90;;;;;;5136908;27;20641;-41
2023/09/03 02:16:54;;;;;;;5.57;3.20;;;14.40;99.90;;;;;;5136114;27;19920;-40
2023/09/03 02:19:19;;;;;;;6.93;3.10;;;14.40;99.90;;;;;;5136977;27;20107;-40
2023/09/03 02:21:45;;;;;;;7.72;3.47;;;14.30;99.90;;;;;;5117973;27;20550;-40
2023/09/03 02:24:11;;;;;;;8.40;3.80;;;14.30;99.90;;;;;;5136189;27;20039;-40
2023/09/03 02:26:41;;;;;;;6.05;3.45;;;14.20;99.90;;;;;;5136332;27;20087;-40
2023/09/03 02:29:08;;;;;;;8.63;3.40;;;14.20;99.90;;;;;;5136136;27;20042;-40
2023/09/03 02:31:33;;;;;;;6.82;3.72;;;14.20;99.90;;;;;;5135838;27;20079;-40
2023/09/03 02:33:59;;;;;;;6.40;3.30;;;14.30;99.90;;;;;;5136129;27;20043;-40
2023/09/03 02:36:24;;;;;;;5.60;3.20;;;14.30;99.90;;;;;;5135984;27;20318;-40
2023/09/03 02:39:08;;;;;;;6.83;3.40;;;14.20;99.90;;;;;;5136186;27;20051;-40
2023/09/03 02:41:34;;;;;;;6.38;3.20;;;14.20;99.90;;;;;;5135929;27;20051;-41
2023/09/03 02:44:01;;;;;;;5.75;3.33;;;14.20;99.90;;;;;;5135676;27;20045;-40
2023/09/03 02:46:27;;;;;;;6.72;3.03;;;14.20;99.90;;;;;;5136317;27;20039;-40
2023/09/03 02:48:53;;;;;;;6.15;3.28;;;14.20;99.90;;;;;;5135837;27;20047;-40
2023/09/03 02:51:19;;;;;;;5.15;2.97;;;14.20;99.90;;;;;;5135665;27;20468;-40
2023/09/03 02:53:46;;;;;;;5.00;2.92;;;14.20;99.90;;;;;;5135517;27;20047;-41
2023/09/03 02:56:15;;;;;;;5.10;2.70;;;14.20;99.90;;;;;;5135572;27;20050;-40
2023/09/03 02:58:41;;;;;;;5.68;2.92;;;14.10;99.90;;;;;;5135612;27;20050;-40
2023/09/03 03:01:12;;;;;;;5.15;2.95;;;14.00;99.90;;;;;;5135515;27;20042;-40
2023/09/03 03:03:38;;;;;;;5.10;2.47;;;14.00;99.90;;;;;;5116643;27;20066;-40
2023/09/03 03:06:04;;;;;;;4.75;2.42;;;13.90;99.90;;;;;;5135620;27;20077;-40
2023/09/03 03:08:29;;;;;;;5.60;2.80;;;13.90;99.90;;;;;;5117138;27;20051;-40
2023/09/03 03:11:09;;;;;;;4.97;2.88;;;13.80;99.90;;;;;;5135307;27;20490;-41
2023/09/03 03:13:35;;;;;;;4.90;2.45;;;13.90;99.90;;;;;;5135375;27;20039;-39
2023/09/03 03:16:09;;;;;;;4.25;2.20;;;13.90;99.90;;;;;;5116962;27;20403;-40
2023/09/03 03:18:37;;;;;;;5.80;3.05;;;13.90;99.90;;;;;;5135386;27;20043;-40
2023/09/03 03:21:10;;;;;;;4.75;2.53;;;13.90;99.90;;;;;;5135236;27;20062;-40
2023/09/03 03:23:37;;;;;;;6.13;2.47;;;13.80;99.90;;;;;;5135097;27;20050;-40
2023/09/03 03:26:04;;;;;;;4.63;2.45;;;13.80;99.90;;;;;;5135324;27;20047;-40
2023/09/03 03:28:32;;;;;;;4.35;2.22;;;13.80;99.90;;;;;;5135159;27;20076;-40
2023/09/03 03:31:07;;;;;;;5.25;3.13;;;13.80;99.90;;;;;;5134782;27;20583;-40
2023/09/03 03:33:33;;;;;;;5.72;2.75;;;13.80;99.90;;;;;;5135011;27;20126;-40
2023/09/03 03:35:59;;;;;;;5.07;2.88;;;13.80;99.90;;;;;;5134695;27;20126;-40
2023/09/03 03:38:25;;;;;;;6.30;3.40;;;13.80;99.90;;;;;;5134931;27;20050;-40
2023/09/03 03:40:50;;;;;;;5.05;3.05;;;13.80;99.90;;;;;;5134928;27;20043;-40
2023/09/03 03:43:16;;;;;;;5.83;3.73;;;13.80;99.90;;;;;;5134806;27;20426;-40
2023/09/03 03:45:42;;;;;;;5.90;3.67;;;13.80;99.90;;;;;;5134841;27;20146;-40
2023/09/03 03:48:07;;;;;;;6.38;3.58;;;13.80;99.90;;;;;;5134618;27;20051;-40
2023/09/03 03:50:33;;;;;;;5.83;3.20;;;13.80;99.90;;;;;;5134572;27;20047;-40
2023/09/03 03:52:59;;;;;;;6.10;3.40;;;13.80;99.90;;;;;;5134734;27;20122;-41
2023/09/03 03:55:24;;;;;;;6.63;3.13;;;13.80;99.90;;;;;;5134800;27;20050;-40
2023/09/03 03:57:50;;;;;;;5.53;3.17;;;13.90;99.90;;;;;;5134529;27;20055;-40
2023/09/03 04:00:16;;;;;;;4.93;2.90;;;13.90;99.90;;;;;;5134575;27;20054;-40
2023/09/03 04:02:41;;;;;;;4.07;2.35;;;13.80;99.90;;;;;;5134665;28;20429;-40
2023/09/03 04:05:07;;;;;;;4.87;2.83;;;13.80;99.90;;;;;;5134499;28;20055;-40
2023/09/03 04:07:33;;;;;;;6.22;2.90;;;13.80;99.90;;;;;;5134862;28;20399;-40
2023/09/03 04:09:59;;;;;;;5.53;2.87;;;13.80;99.90;;;;;;5134542;28;20546;-40
2023/09/03 04:12:25;;;;;;;4.55;2.72;;;13.70;99.90;;;;;;5118098;27;20126;-40
2023/09/03 04:14:51;;;;;;;4.53;2.73;;;13.70;99.90;;;;;;5120772;27;20130;-40
2023/09/03 04:17:16;;;;;;;5.37;2.97;;;13.70;99.90;;;;;;5138828;27;20074;-40
2023/09/03 04:19:47;;;;;;;5.77;2.97;;;13.70;99.90;;;;;;5138664;27;20104;-40
2023/09/03 04:22:13;;;;;;;8.57;3.28;;;13.70;99.90;;;;;;5138667;27;20051;-40
2023/09/03 04:24:38;;;;;;;5.60;2.90;;;13.70;99.90;;;;;;5138536;27;20449;-40
2023/09/03 04:27:04;;;;;;;5.27;2.80;;;13.70;99.90;;;;;;5138618;27;20047;-40
2023/09/03 04:29:30;;;;;;;6.40;3.63;;;13.70;99.90;;;;;;5138660;27;20051;-40
2023/09/03 04:31:55;;;;;;;6.23;3.57;;;13.70;99.90;;;;;;5138513;27;20062;-40
2023/09/03 04:34:21;;;;;;;6.13;3.50;;;13.70;99.90;;;;;;5138355;27;20039;-40
2023/09/03 04:36:47;;;;;;;5.90;3.30;;;13.70;99.90;;;;;;5138424;27;20038;-40
2023/09/03 04:39:12;;;;;;;5.77;3.10;;;13.70;99.90;;;;;;5138371;27;20047;-40
2023/09/03 04:41:38;;;;;;;8.10;4.10;;;13.70;99.90;;;;;;5138116;27;20052;-40
2023/09/03 04:44:09;;;;;;;5.35;3.10;;;13.70;99.90;;;;;;5138091;27;20284;-40
2023/09/03 04:46:34;;;;;;;6.30;3.40;;;13.70;99.90;;;;;;5138066;27;20043;-40
2023/09/03 04:49:01;;;;;;;5.55;3.38;;;13.70;99.90;;;;;;5137964;27;20051;-40
2023/09/03 04:51:26;;;;;;;6.63;3.58;;;13.70;99.90;;;;;;5138193;27;20043;-40
2023/09/03 04:53:53;;;;;;;6.95;4.05;;;13.70;99.90;;;;;;5138077;27;20035;-40
2023/09/03 04:56:18;;;;;;;5.82;3.28;;;13.70;99.90;;;;;;5119953;27;20055;-40
2023/09/03 04:58:44;;;;;;;5.70;3.20;;;13.70;99.90;;;;;;5138191;27;20039;-40
2023/09/03 05:01:16;;;;;;;5.50;3.13;;;13.70;99.90;;;;;;5137902;27;20051;-40
2023/09/03 05:03:43;;;;;;;6.30;2.72;;;13.70;99.90;;;;;;5137664;27;20039;-40
2023/09/03 05:06:16;;;;;;;4.50;2.65;;;13.70;99.90;;;;;;5138255;27;20065;-40
2023/09/03 05:08:43;;;;;;;5.15;2.88;;;13.60;99.90;;;;;;5137801;27;20047;-40
2023/09/03 05:11:11;;;;;;;;;;;13.60;99.90;;;;;;5138070;27;20399;-40
2023/09/03 05:13:37;;;;;;;5.47;2.95;;;13.50;99.90;;;;;;5137644;27;20277;-40
2023/09/03 05:16:04;;;;;;;5.28;3.17;;;13.50;99.90;;;;;;5137602;27;20103;-40
2023/09/03 05:18:30;;;;;;;6.18;3.33;;;13.50;99.90;;;;;;5137605;27;20059;-40
2023/09/03 05:20:56;;;;;;;6.97;3.45;;;13.50;99.90;;;;;;5137588;27;20043;-40
2023/09/03 05:23:22;;;;;;;6.45;3.85;;;13.60;99.90;;;;;;5136384;27;20155;-40
2023/09/03 05:25:48;;;;;;;7.75;4.38;;;13.60;99.90;;;;;;5137072;27;20164;-40
2023/09/03 05:28:13;;;;;;;6.23;3.77;;;13.50;99.90;;;;;;5137326;27;20065;-40
2023/09/03 05:30:39;;;;;;;4.20;2.37;;;13.60;99.90;;;;;;5137143;27;20765;-40
2023/09/03 05:33:05;;;;;;;6.27;3.17;;;13.60;99.90;;;;;;5137372;27;20039;-40
2023/09/03 05:35:30;;;;;;;4.32;2.40;;;13.60;99.90;;;;;;5137258;27;20070;-40
2023/09/03 05:37:56;;;;;;;4.33;2.50;;;13.60;99.90;;;;;;5137197;27;20050;-40
2023/09/03 05:40:22;;;;;;;4.47;2.40;;;13.70;99.90;;;;;;5137091;27;20126;-40
2023/09/03 05:42:48;;;;;;;6.80;2.97;;;13.70;99.90;;;;;;5137030;27;20064;-39
2023/09/03 05:45:14;;;;;;;4.88;2.90;;;13.60;99.90;;;;;;5136878;27;20039;-40
2023/09/03 05:47:40;;;;;;;5.87;3.07;;;13.60;99.90;;;;;;5136789;27;20532;-40
2023/09/03 05:50:06;;;;;;;6.33;3.53;;;13.70;99.90;;;;;;5137142;27;20089;-40
2023/09/03 05:52:31;;;;;;;5.60;3.38;;;13.70;99.90;;;;;;5136955;27;20041;-40
2023/09/03 05:54:57;;;;;;;5.90;3.53;;;13.70;99.90;;;;;;5136827;27;20047;-40
2023/09/03 05:57:23;;;;;;;7.10;3.92;;;13.80;99.90;;;;;;5136859;27;20050;-40
2023/09/03 05:59:50;;;;;;;6.47;3.67;;;13.90;99.90;;;;;;5118300;27;20504;-40
2023/09/03 06:02:16;;;;;;;7.28;3.92;;;14.00;99.90;;;;;;5136881;27;20099;-40
2023/09/03 06:04:42;;;;;;;8.43;3.92;;;14.00;99.90;;;;;;5136492;27;20094;-40
2023/09/03 06:07:09;;;;;;;7.80;4.18;;;14.10;99.90;;;;;;5136681;27;20079;-40
2023/09/03 06:09:36;;;;;;;6.55;3.65;;;14.10;99.90;;;;;;5136703;27;20178;-40
2023/09/03 06:12:01;;;;;;;7.40;4.07;;;14.10;99.90;;;;;;5136569;27;20054;-40
2023/09/03 06:14:27;;;;;;;7.20;4.10;;;14.20;99.90;;;;;;5136365;27;20051;-40
2023/09/03 06:16:54;;;;;;;6.70;3.50;;;14.20;99.90;;;;;;5118430;27;20051;-40
2023/09/03 06:19:22;;;;;;;7.63;3.55;;;14.30;99.90;;;;;;5136467;27;20179;-40
2023/09/03 06:21:48;;;;;;;6.78;3.72;;;14.40;99.90;;;;;;5136550;27;20058;-40
2023/09/03 06:24:15;;;;;;;7.10;3.55;;;14.40;99.90;;;;;;5136216;27;20065;-40
2023/09/03 06:26:41;;;;;;;7.82;3.90;;;14.50;99.90;;;;;;5136078;27;20556;-40
2023/09/03 06:29:07;;;;;;;7.05;3.60;;;14.50;99.90;;;;;;5136142;27;20090;-40
2023/09/03 06:31:33;;;;;;;6.00;3.40;;;14.60;99.90;;;;;;5136129;27;20039;-40
2023/09/03 06:33:59;;;;;;;7.03;3.80;;;14.70;99.90;;;;;;5136124;27;20043;-40
2023/09/03 06:36:25;;;;;;;10.27;4.95;;;14.80;99.90;;;;;;5136018;27;20280;-40
2023/09/03 06:38:51;;;;;;;8.60;3.97;;;14.90;99.90;;;;;;5135929;27;20146;-40
2023/09/03 06:41:17;;;;;;;;;;;15.10;99.90;;;;;;5136362;27;20395;-40
2023/09/03 06:43:43;;;;;;;6.25;3.35;;;15.10;99.90;;;;;;5135548;27;19926;-40
2023/09/03 06:46:08;;;;;;;6.32;3.50;;;15.20;99.90;;;;;;5135837;27;20043;-40
2023/09/03 06:48:34;;;;;;;6.88;3.60;;;15.30;99.90;;;;;;5117610;27;20047;-40
2023/09/03 06:51:00;;;;;;;6.32;3.17;;;15.30;99.90;;;;;;5117719;27;20388;-40
2023/09/03 06:53:26;;;;;;;7.30;3.90;;;15.40;99.90;;;;;;5135618;27;20043;-40
2023/09/03 06:55:52;;;;;;;6.53;3.58;;;15.40;99.90;;;;;;5135663;27;20057;-40
2023/09/03 06:58:18;;;;;;;6.32;3.50;;;15.50;99.90;;;;;;5135387;27;20054;-40
2023/09/03 07:00:43;;;;;;;5.13;2.93;;;15.60;99.90;;;;;;5135616;27;20047;-40
2023/09/03 07:03:09;;;;;;;5.32;2.78;;;15.70;99.90;;;;;;5135235;27;20358;-40
2023/09/03 07:05:35;;;;;;;4.85;2.40;;;15.70;99.90;;;;;;5135289;27;20058;-40
2023/09/03 07:08:01;;;;;;;6.13;2.90;;;15.70;99.90;;;;;;5135297;27;20061;-40
2023/09/03 07:10:27;;;;;;;5.25;2.58;;;15.80;99.90;;;;;;5135249;27;20281;-40
2023/09/03 07:12:52;;;;;;;5.30;2.55;;;15.90;99.90;;;;;;5135273;27;20118;-40
2023/09/03 07:15:18;;;;;;;4.65;2.22;;;15.90;99.90;;;;;;5135323;27;20150;-40
2023/09/03 07:17:44;;;;;;;5.60;2.10;;;16.00;99.90;;;;;;5135317;27;20365;-40
2023/09/03 07:20:10;;;;;;;4.60;2.20;;;16.10;99.90;;;;;;5116952;27;20096;-40
2023/09/03 07:22:36;;;;;;;5.15;2.28;;;16.10;99.90;;;;;;5134924;27;20777;-40
2023/09/03 07:25:01;;;;;;;5.47;2.07;;;16.10;99.90;;;;;;5135243;27;20056;-40
2023/09/03 07:27:27;;;;;;;4.57;2.05;;;16.20;99.90;;;;;;5135057;27;20705;-40
2023/09/03 07:29:53;;;;;;;3.60;1.73;;;16.20;99.90;;;;;;5134944;27;20129;-40
2023/09/03 07:32:22;;;;;;;4.40;1.98;;;16.20;99.90;;;;;;5135182;27;20042;-39
2023/09/03 07:34:48;;;;;;;4.47;2.25;;;16.20;99.90;;;;;;5135049;27;20043;-40
2023/09/03 07:37:14;;;;;;;6.13;1.90;;;16.20;99.90;;;;;;5135062;27;20072;-41
2023/09/03 07:39:40;;;;;;;5.63;1.50;;;16.30;99.90;;;;;;5116849;27;20065;-40
2023/09/03 07:42:06;;;;;;;2.90;1.48;;;16.30;99.90;;;;;;5134527;27;20043;-40
2023/09/03 07:44:32;;;;;;;4.95;1.80;;;16.30;99.90;;;;;;5135073;27;20042;-39
2023/09/03 07:46:57;;;;;;;5.65;1.63;;;16.30;99.90;;;;;;5133999;27;20491;-40
2023/09/03 07:49:23;;;;;;;3.45;1.60;;;16.40;99.90;;;;;;5134848;27;20047;-40
2023/09/03 07:51:49;;;;;;;3.17;1.40;;;16.40;99.90;;;;;;5134941;27;20035;-39
2023/09/03 07:54:17;;;;;;;4.83;1.47;;;16.40;99.90;;;;;;5134853;27;20596;-39
2023/09/03 07:56:43;;;;;;;3.67;1.65;;;16.40;99.90;;;;;;5134532;27;20287;-40
2023/09/03 07:59:09;;;;;;;5.22;1.63;;;16.40;99.90;;;;;;5116717;27;20047;-40
2023/09/03 08:01:35;;;;;;;4.20;1.65;;;16.50;99.90;;;;;;5116416;28;20054;-40
2023/09/03 08:04:01;;;;;;;3.63;1.80;;;16.50;99.90;;;;;;5134576;28;20043;-40
2023/09/03 08:06:26;;;;;;;4.23;1.80;;;16.50;99.90;;;;;;5134520;28;20464;-39
2023/09/03 08:08:54;;;;;;;6.47;1.63;;;16.60;99.90;;;;;;5134509;28;20281;-39
2023/09/03 08:11:21;;;;;;;3.00;1.40;;;16.60;99.90;;;;;;5134378;28;20058;-40
2023/09/03 08:13:51;;;;;;;3.67;1.38;;;16.60;99.90;;;;;;5134607;28;20046;-40
2023/09/03 08:16:17;;;;;;;2.55;1.02;;;16.70;99.90;;;;;;5134683;28;20051;-40
2023/09/03 08:18:42;;;;;;;3.63;1.23;;;16.70;99.90;;;;;;5134734;28;20069;-40
2023/09/03 08:21:08;;;;;;;3.35;1.45;;;16.70;99.90;;;;;;5116399;28;20083;-39
2023/09/03 08:23:34;;;;;;;2.53;1.20;;;16.80;99.90;;;;;;5134482;28;20044;-40
2023/09/03 08:25:59;;;;;;;2.97;1.13;;;16.80;99.90;;;;;;5134142;28;20316;-39
2023/09/03 08:28:25;;;;;;;3.22;1.05;;;16.80;99.90;;;;;;5134355;28;20484;-40
2023/09/03 08:30:51;;;;;;;2.70;1.20;;;16.90;99.90;;;;;;5134401;28;20104;-39
2023/09/03 08:33:16;;;;;;;2.58;1.30;;;16.90;99.90;;;;;;5116032;28;20084;-39
2023/09/03 08:35:43;;;;;;;3.95;1.05;;;17.00;99.90;;;;;;5134234;28;20126;-39
2023/09/03 08:38:09;;;;;;;2.80;1.17;;;17.00;99.90;;;;;;5134253;28;20122;-40
2023/09/03 08:40:36;;;;;;;2.33;1.10;;;17.00;99.90;;;;;;5115909;28;20089;-40
2023/09/03 08:43:06;;;;;;;3.40;1.27;;;17.00;99.90;;;;;;5134194;28;20090;-40
2023/09/03 08:45:36;;;;;;;3.92;1.38;;;17.00;99.90;;;;;;5116131;28;20126;-40
2023/09/03 08:48:02;;;;;;;3.75;1.20;;;17.10;99.90;;;;;;5134346;28;20122;-39
2023/09/03 08:50:28;;;;;;;2.10;1.00;;;17.10;99.90;;;;;;5134143;28;20440;-40
2023/09/03 08:52:56;;;;;;;2.65;1.23;;;17.10;99.90;;;;;;5134213;28;20054;-40
2023/09/03 08:55:22;;;;;;;2.47;1.10;;;17.10;99.90;;;;;;5134132;28;20050;-40
2023/09/03 08:57:48;;;;;;;3.60;1.10;;;17.20;99.90;;;;;;5134773;27;20047;-40
2023/09/03 09:00:14;;;;;;;4.07;1.10;;;17.20;99.90;;;;;;5137993;27;20126;-40
2023/09/03 09:02:42;;;;;;;3.03;1.20;;;17.20;99.90;;;;;;5137907;27;20054;-40
2023/09/03 09:05:09;;;;;;;2.28;0.90;;;17.30;99.90;;;;;;5137456;27;20496;-40
2023/09/03 09:07:35;;;;;;;2.47;1.00;;;17.30;99.90;;;;;;5137563;27;20511;-40
2023/09/03 09:10:27;;;;;;;3.20;1.20;;;17.40;99.90;;;;;;5137473;27;20078;-39
2023/09/03 09:13:06;;;;;;;3.63;1.00;;;17.50;99.90;;;;;;5137760;27;20080;-40
2023/09/03 09:15:35;;;;;;;2.83;1.10;;;17.40;99.90;;;;;;5137918;27;20147;-40
2023/09/03 09:18:01;;;;;;;2.80;1.35;;;17.50;99.90;;;;;;5137518;27;20054;-40
2023/09/03 09:20:28;;;;;;;2.90;1.10;;;17.60;99.90;;;;;;5137381;27;20047;-40
2023/09/03 09:22:54;;;;;;;2.72;1.17;;;17.60;99.90;;;;;;5137463;27;20035;-39
2023/09/03 09:25:21;;;;;;;;;;;17.70;99.90;;;;;;5137879;27;20050;-40
2023/09/03 09:27:47;;;;;;;2.90;1.10;;;17.70;99.90;;;;;;5137373;27;19919;-40
2023/09/03 09:30:16;;;;;;;4.07;1.13;;;17.70;99.90;;;;;;5137227;27;20159;-40
2023/09/03 09:32:43;;;;;;;2.00;1.08;;;17.80;99.90;;;;;;5118986;27;20471;-40
2023/09/03 09:35:09;;;;;;;3.35;1.17;;;17.80;99.90;;;;;;5119522;27;20043;-40
2023/09/03 09:37:39;;;;;;;;;;;17.80;99.90;;;;;;5137760;27;20039;-40
2023/09/03 09:40:08;;;;;;;2.40;1.00;;;17.90;99.90;;;;;;5137181;27;20283;-39
2023/09/03 09:42:50;;;;;;;2.70;1.10;;;17.90;99.90;;;;;;5137011;27;20469;-39
2023/09/03 09:45:16;;;;;;;2.15;0.90;;;18.00;99.90;;;;;;5118932;27;20051;-40
2023/09/03 09:47:42;;;;;;;2.80;0.90;;;18.00;99.90;;;;;;5137090;27;20070;-40
2023/09/03 09:50:08;;;;;;;2.53;1.10;;;18.00;99.90;;;;;;5136976;27;20035;-40
2023/09/03 09:52:36;;;;;;;1.88;0.90;;;18.10;99.90;;;;;;5137061;27;20035;-40
2023/09/03 09:55:02;;;;;;;3.10;1.00;;;18.10;99.90;;;;;;5136922;27;20047;-40
2023/09/03 09:57:28;;;;;;;2.95;1.10;;;18.10;99.90;;;;;;5136949;27;20046;-40
2023/09/03 10:00:01;;;;;;;2.50;1.17;;;18.20;99.90;;;;;;5136777;27;20043;-41
2023/09/03 10:02:27;;;;;;;2.95;1.27;;;18.30;99.90;;;;;;5118769;27;20050;-40
2023/09/03 10:04:54;;;;;;;3.15;1.30;;;18.30;99.90;;;;;;5136342;27;20491;-40
2023/09/03 10:07:20;;;;;;;3.42;1.30;;;18.40;99.90;;;;;;5136842;27;20047;-40
2023/09/03 10:09:46;;;;;;;2.47;1.10;;;18.40;99.90;;;;;;5117738;27;20047;-40
2023/09/03 10:12:12;;;;;;;2.05;1.00;;;18.50;99.90;;;;;;5136402;27;20046;-41
2023/09/03 10:14:38;;;;;;;;;;;18.50;99.90;;;;;;5136973;27;20092;-41
2023/09/03 10:17:05;;;;;;;2.45;1.20;;;18.60;99.90;;;;;;5136650;27;19920;-40
2023/09/03 10:19:41;;;;;;;3.47;1.30;;;18.60;99.90;;;;;;5136400;27;20043;-41
2023/09/03 10:22:13;;;;;;;2.87;1.30;;;18.80;99.90;;;;;;5136543;27;20503;-40
2023/09/03 10:24:41;;;;;;;3.88;1.35;;;18.80;99.90;;;;;;5118034;27;20049;-40
2023/09/03 10:27:13;;;;;;;1.88;0.88;;;18.90;99.90;;;;;;5136302;27;20120;-40
2023/09/03 10:29:41;;;;;;;2.83;0.90;;;19.00;99.90;;;;;;5136317;27;20043;-40
2023/09/03 10:32:08;;;;;;;2.28;1.08;;;19.10;99.90;;;;;;5136108;27;20040;-40
2023/09/03 10:34:39;;;;;;;3.30;1.30;;;19.20;99.90;;;;;;5136056;27;20498;-40
2023/09/03 10:37:13;;;;;;;1.35;0.70;;;19.30;99.90;;;;;;5135989;27;20047;-40
2023/09/03 10:39:46;;;;;;;2.00;0.88;;;19.40;99.90;;;;;;5152050;27;20054;-41
2023/09/03 10:42:23;;;;;;;2.22;1.00;;;19.60;99.90;;;;;;5136128;27;20046;-41
2023/09/03 10:44:57;;;;;;;1.95;0.90;;;19.70;99.90;;;;;;5135822;27;20043;-40
2023/09/03 10:47:23;;;;;;;3.00;1.10;;;19.80;99.90;;;;;;5136053;27;20093;-41
2023/09/03 10:49:53;;;;;;;2.10;0.80;;;20.00;99.90;;;;;;5135696;27;20484;-41
2023/09/03 10:52:31;;;;;;;2.88;1.00;;;20.10;99.90;;;;;;5135973;27;20387;-41
2023/09/03 10:55:12;;;;;;;3.30;1.02;;;20.20;99.90;;;;;;5135719;27;20047;-41
2023/09/03 10:57:39;;;;;;;3.53;1.00;;;20.30;99.90;;;;;;5135585;27;20047;-41
2023/09/03 11:00:05;;;;;;;3.17;0.98;;;20.30;99.90;;;;;;5135542;27;20082;-40
2023/09/03 11:02:32;;;;;;;3.55;1.02;;;20.40;99.90;;;;;;5135382;27;20507;-41
2023/09/03 11:05:22;;;;;;;1.45;0.73;;;20.50;99.90;;;;;;5116990;27;20051;-41
2023/09/03 11:08:09;;;;;;;2.30;1.17;;;20.60;99.90;;;;;;5135240;27;20491;-40
2023/09/03 11:10:39;;;;;;;5.63;1.48;;;20.70;99.90;;;;;;5135045;27;20484;-40
2023/09/03 11:13:10;;;;;;;2.13;0.80;;;20.80;99.90;;;;;;5135220;27;20385;-41
2023/09/03 11:15:35;;;;;;;1.58;0.80;;;20.90;99.90;;;;;;5135482;27;20558;-40
2023/09/03 11:18:01;;;;;;;1.45;0.77;;;21.00;99.90;;;;;;5135279;27;20139;-41
2023/09/03 11:20:28;;;;;;;2.05;0.80;;;21.10;99.90;;;;;;5135169;27;20039;-41
2023/09/03 11:22:55;;;;;;;2.92;0.73;;;21.20;99.90;;;;;;5116929;27;20047;-41
2023/09/03 11:25:35;;;;;;;2.80;0.93;;;21.30;99.90;;;;;;5135006;27;20051;-41
2023/09/03 11:28:01;;;;;;;2.25;0.80;;;21.40;99.90;;;;;;5135066;27;20047;-41
2023/09/03 11:30:28;;;;;;;3.50;0.95;;;21.40;99.90;;;;;;5135235;27;20051;-41
2023/09/03 11:32:54;;;;;;;1.98;0.70;;;21.50;99.90;;;;;;5135043;27;20063;-41
2023/09/03 11:35:20;;;;;;;2.50;1.00;;;21.50;99.90;;;;;;5116881;27;20542;-41
2023/09/03 11:37:46;;;;;;;;;;;21.60;99.90;;;;;;5135400;27;20132;-41
2023/09/03 11:40:12;;;;;;;1.90;0.80;;;21.60;99.90;;;;;;5134784;27;19979;-41
2023/09/03 11:42:41;;;;;;;1.63;0.70;;;21.60;99.90;;;;;;5134814;27;20046;-41
2023/09/03 11:45:09;;;;;;;2.88;0.70;;;21.70;99.90;;;;;;5134803;27;20487;-41
2023/09/03 11:47:49;;;;;;;1.83;0.63;;;21.70;99.90;;;;;;5134855;27;20043;-41
2023/09/03 11:50:16;;;;;;;1.65;0.70;;;21.80;99.90;;;;;;5134875;27;20035;-41
2023/09/03 11:52:58;;;;;;;2.00;0.90;;;21.90;99.90;;;;;;5134779;27;20088;-40
2023/09/03 11:55:29;;;;;;;1.20;0.60;;;22.00;99.90;;;;;;5116832;27;20043;-41
2023/09/03 11:58:00;;;;;;;3.08;0.82;;;22.10;99.90;;;;;;5134940;27;20047;-41
2023/09/03 12:00:27;;;;;;;2.58;0.80;;;22.20;99.90;;;;;;5134691;27;20055;-41
2023/09/03 12:02:53;;;;;;;;;;;22.30;99.90;;;;;;5116605;27;20039;-41
2023/09/03 12:05:19;;;;;;;3.17;0.90;;;22.30;99.90;;;;;;5134317;28;19923;-41
2023/09/03 12:07:48;;;;;;;3.35;0.95;;;22.30;99.90;;;;;;5134904;28;20057;-40
2023/09/03 12:10:20;;;;;;;2.42;0.90;;;22.40;99.90;;;;;;5116134;28;20483;-41
2023/09/03 12:12:46;;;;;;;2.17;0.90;;;22.40;99.90;;;;;;5134465;28;20158;-40
2023/09/03 12:15:22;;;;;;;1.45;0.70;;;22.40;99.90;;;;;;5116182;28;20047;-41
2023/09/03 12:17:48;;;;;;;4.57;1.10;;;22.50;99.90;;;;;;5134453;28;20062;-41
2023/09/03 12:20:34;;;;;;;2.58;0.70;;;22.60;99.90;;;;;;5134513;28;20495;-41
2023/09/03 12:23:14;;;;;;;2.15;0.82;;;22.60;99.90;;;;;;5134105;28;20391;-41
2023/09/03 12:25:41;;;;;;;2.90;0.80;;;22.70;99.90;;;;;;5134241;28;20051;-41
2023/09/03 12:28:08;;;;;;;2.03;0.70;;;22.80;99.90;;;;;;5134043;28;20506;-41
2023/09/03 12:30:55;;;;;;;2.13;0.80;;;22.80;99.90;;;;;;5134364;28;20476;-41
2023/09/03 12:33:21;;;;;;;2.45;0.68;;;22.70;99.90;;;;;;5135863;27;20118;-41
2023/09/03 12:36:07;;;;;;;1.50;0.60;;;22.70;99.90;;;;;;5138417;27;20050;-41
2023/09/03 12:38:53;;;;;;;1.95;0.70;;;22.70;99.90;;;;;;5138228;27;20043;-41
2023/09/03 12:41:23;;;;;;;2.00;0.70;;;22.80;99.90;;;;;;5138809;27;20054;-41
2023/09/03 12:43:49;;;;;;;2.20;0.70;;;22.80;99.90;;;;;;5138210;27;20094;-41
2023/09/03 12:46:15;;;;;;;2.58;0.63;;;22.70;99.90;;;;;;5138268;27;20043;-41
2023/09/03 12:48:44;;;;;;;;;;;22.50;99.90;;;;;;5138619;27;20053;-41
2023/09/03 12:51:11;;;;;;;2.25;0.60;;;22.40;99.90;;;;;;5138149;27;19920;-41
2023/09/03 12:53:39;;;;;;;1.35;0.63;;;22.20;99.90;;;;;;5138001;27;20130;-41
2023/09/03 12:56:04;;;;;;;1.17;0.43;;;22.20;99.90;;;;;;5138461;27;20074;-41